createdAt,value
2018-03-11T10:50:03.464Z,61.74
2018-03-11T10:52:31.005Z,61.55
2018-03-11T10:54:58.529Z,63.41
2018-03-11T10:57:26.132Z,62.27
2018-03-11T10:59:53.824Z,61.05
2018-03-11T11:02:28.009Z,61.21
2018-03-11T11:05:00.573Z,61.37
2018-03-11T11:07:28.140Z,60.51
2018-03-11T11:09:55.732Z,61.36
2018-03-11T11:12:24.476Z,61.97
2018-03-11T11:14:52.090Z,61.91
2018-03-11T11:17:19.720Z,61.32
2018-03-11T11:19:47.318Z,63.55
2018-03-11T11:22:15.157Z,68.26
2018-03-11T11:24:43.684Z,68.98
2018-03-11T11:27:11.391Z,68.77
2018-03-11T11:29:39.169Z,66.86
2018-03-11T11:32:06.905Z,68.15
2018-03-11T11:34:34.543Z,66.87
2018-03-11T11:37:02.210Z,65.50
2018-03-11T11:39:29.846Z,61.64
2018-03-11T11:41:57.572Z,59.61
2018-03-11T11:44:25.234Z,55.70
2018-03-11T11:46:52.954Z,55.33
2018-03-11T11:49:20.525Z,54.22
2018-03-11T11:51:48.115Z,53.68
2018-03-11T11:54:15.779Z,49.98
2018-03-11T11:56:43.625Z,49.46
2018-03-11T11:59:11.387Z,49.58
2018-03-11T12:01:39.071Z,49.41
2018-03-11T12:04:06.724Z,50.17
2018-03-11T12:06:34.340Z,46.37
2018-03-11T12:09:01.924Z,44.17
2018-03-11T12:11:29.751Z,41.60
2018-03-11T12:13:57.407Z,36.47
2018-03-11T12:16:24.997Z,36.86
2018-03-11T12:18:52.563Z,38.56
2018-03-11T12:21:20.633Z,37.21
2018-03-11T12:23:48.324Z,36.99
2018-03-11T12:26:16.264Z,37.87
2018-03-11T12:28:43.824Z,38.15
2018-03-11T12:31:11.673Z,38.58
2018-03-11T12:33:39.504Z,35.50
2018-03-11T12:36:07.223Z,37.70
2018-03-11T12:38:34.988Z,35.93
2018-03-11T12:41:02.588Z,35.67
2018-03-11T12:43:30.335Z,34.97
2018-03-11T12:45:58.150Z,36.27
2018-03-11T12:48:26.134Z,37.33
2018-03-11T12:50:54.218Z,40.57
2018-03-11T12:53:24.145Z,41.58
2018-03-11T12:55:51.824Z,41.92
2018-03-11T12:58:19.736Z,42.65
2018-03-11T13:00:48.195Z,44.28
2018-03-11T13:03:15.765Z,43.98
2018-03-11T13:05:43.365Z,45.92
2018-03-11T13:08:11.054Z,44.95
2018-03-11T13:10:38.959Z,46.62
2018-03-11T13:13:07.000Z,47.42
2018-03-11T13:15:34.580Z,47.74
2018-03-11T13:18:02.169Z,47.14
2018-03-11T13:20:41.709Z,48.98
2018-03-11T13:23:09.354Z,50.80
2018-03-11T13:25:36.925Z,52.96
2018-03-11T13:28:16.565Z,55.36
2018-03-11T13:30:44.253Z,53.16
2018-03-11T13:33:23.793Z,50.75
2018-03-11T13:35:51.474Z,50.23
2018-03-11T13:38:31.631Z,51.82
2018-03-11T13:40:59.252Z,52.60
2018-03-11T13:43:26.933Z,54.06
2018-03-11T13:46:06.454Z,53.46
2018-03-11T13:48:34.083Z,55.60
2018-03-11T13:51:01.709Z,55.15
2018-03-11T13:53:41.193Z,55.03
2018-03-11T13:56:08.794Z,53.48
2018-03-11T13:58:43.297Z,54.17
2018-03-11T14:01:11.070Z,55.53
2018-03-11T14:03:38.743Z,55.01
2018-03-11T14:06:06.521Z,58.02
2018-03-11T14:08:34.075Z,59.59
2018-03-11T14:11:01.823Z,57.85
2018-03-11T14:13:29.484Z,57.22
2018-03-11T14:15:57.367Z,56.58
2018-03-11T14:18:25.062Z,59.53
2018-03-11T14:20:52.888Z,60.57
2018-03-11T14:23:26.873Z,60.72
2018-03-11T14:25:55.188Z,60.15
2018-03-11T14:28:22.823Z,59.63
2018-03-11T14:30:50.421Z,58.38
2018-03-11T14:33:18.044Z,58.50
2018-03-11T14:35:45.774Z,60.00
2018-03-11T14:38:13.446Z,62.11
2018-03-11T14:40:41.096Z,67.02
2018-03-11T14:43:09.084Z,64.98
2018-03-11T14:45:36.949Z,66.27
2018-03-11T14:48:04.823Z,65.24
2018-03-11T14:50:32.570Z,65.05
2018-03-11T14:53:00.854Z,63.23
2018-03-11T14:55:28.628Z,62.49
2018-03-11T14:57:56.240Z,65.00
2018-03-11T15:00:23.950Z,67.00
2018-03-11T15:02:51.824Z,68.09
2018-03-11T15:05:19.447Z,64.33
2018-03-11T15:07:47.136Z,60.59
2018-03-11T15:10:14.884Z,60.96
2018-03-11T15:12:42.580Z,60.99
2018-03-11T15:15:10.188Z,62.42
2018-03-11T15:17:37.841Z,63.19
2018-03-11T15:20:05.500Z,64.49
2018-03-11T15:22:34.209Z,63.60
2018-03-11T15:25:01.778Z,65.24
2018-03-11T15:27:29.502Z,66.36
2018-03-11T15:29:57.165Z,66.51
2018-03-11T15:32:24.888Z,67.69
2018-03-11T15:34:52.692Z,66.99
2018-03-11T15:37:20.555Z,67.29
2018-03-11T15:39:48.243Z,68.49
2018-03-11T15:42:15.915Z,71.59
2018-03-11T15:44:43.725Z,70.42
2018-03-11T15:47:11.522Z,71.42
2018-03-11T15:49:39.181Z,71.60
2018-03-11T15:52:06.755Z,72.51
2018-03-11T15:54:34.563Z,75.84
2018-03-11T15:57:02.445Z,74.69
2018-03-11T15:59:30.085Z,75.05
2018-03-11T16:01:57.788Z,74.93
2018-03-11T16:04:25.624Z,76.96
2018-03-11T16:06:53.184Z,77.91
2018-03-11T16:09:20.888Z,77.63
2018-03-11T16:11:48.516Z,77.65
2018-03-11T16:14:16.120Z,78.83
2018-03-11T16:16:44.014Z,80.28
2018-03-11T16:19:11.683Z,81.38
2018-03-11T16:21:39.361Z,80.88
2018-03-11T16:24:07.140Z,80.61
2018-03-11T16:26:34.738Z,80.55
2018-03-11T16:29:02.375Z,80.76
2018-03-11T16:31:30.160Z,82.01
2018-03-11T16:33:57.840Z,84.71
2018-03-11T16:36:25.462Z,86.83
2018-03-11T16:38:53.043Z,87.17
2018-03-11T16:41:20.824Z,88.62
2018-03-11T16:43:48.431Z,88.68
2018-03-11T16:46:16.036Z,88.34
2018-03-11T16:48:43.750Z,88.07
2018-03-11T16:51:11.363Z,90.00
2018-03-11T16:53:39.795Z,89.96
2018-03-11T16:56:07.446Z,89.77
2018-03-11T16:58:35.124Z,91.03
2018-03-11T17:01:02.973Z,92.25
2018-03-11T17:03:30.649Z,92.10
2018-03-11T17:05:58.354Z,93.23
2018-03-11T17:08:26.019Z,93.14
2018-03-11T17:10:53.799Z,93.29
2018-03-11T17:13:22.015Z,93.74
2018-03-11T17:15:49.960Z,93.29
2018-03-11T17:18:17.681Z,93.14
2018-03-11T17:20:45.381Z,94.67
2018-03-11T17:23:12.949Z,94.55
2018-03-11T17:25:40.589Z,94.97
2018-03-11T17:28:08.190Z,94.85
2018-03-11T17:30:36.483Z,94.79
2018-03-11T17:33:04.181Z,94.84
2018-03-11T17:35:31.771Z,95.12
2018-03-11T17:37:59.367Z,94.45
2018-03-11T17:40:27.075Z,94.20
2018-03-11T17:42:54.686Z,94.25
2018-03-11T17:45:22.438Z,93.82
2018-03-11T17:47:50.099Z,93.27
2018-03-11T17:50:17.775Z,94.50
2018-03-11T17:52:45.720Z,94.97
2018-03-11T17:55:14.175Z,95.13
2018-03-11T17:57:42.574Z,95.55
2018-03-11T18:00:10.194Z,95.68
2018-03-11T18:02:38.024Z,95.56
2018-03-11T18:05:05.648Z,95.71
2018-03-11T18:07:33.998Z,95.63
2018-03-11T18:10:01.749Z,95.71
2018-03-11T18:12:29.440Z,95.63
2018-03-11T18:14:57.200Z,95.70
2018-03-11T18:17:24.837Z,95.56
2018-03-11T18:19:52.400Z,95.56
2018-03-11T18:22:19.969Z,95.68
2018-03-11T18:24:47.564Z,95.71
2018-03-11T18:27:15.310Z,95.91
2018-03-11T18:29:44.214Z,95.34
2018-03-11T18:32:11.893Z,95.69
2018-03-11T18:34:39.713Z,95.32
2018-03-11T18:37:07.314Z,94.50
2018-03-11T18:39:34.915Z,95.34
2018-03-11T18:42:02.730Z,96.26
2018-03-11T18:44:30.608Z,96.24
2018-03-11T18:46:58.356Z,96.87
2018-03-11T18:49:25.974Z,96.80
2018-03-11T18:51:53.642Z,96.93
2018-03-11T18:54:21.210Z,96.74
2018-03-11T18:56:49.058Z,96.69
2018-03-11T18:59:16.644Z,96.22
2018-03-11T19:01:44.763Z,96.55
2018-03-11T19:04:12.884Z,97.10
2018-03-11T19:06:40.504Z,96.26
2018-03-11T19:09:08.201Z,96.56
2018-03-11T19:11:35.877Z,97.01
2018-03-11T19:14:03.536Z,97.04
2018-03-11T19:16:31.179Z,96.90
2018-03-11T19:18:58.820Z,96.65
2018-03-11T19:21:26.405Z,97.00
2018-03-11T19:23:54.122Z,96.72
2018-03-11T19:26:21.858Z,96.37
2018-03-11T19:28:49.663Z,97.30
2018-03-11T19:31:17.438Z,98.01
2018-03-11T19:33:45.002Z,97.86
2018-03-11T19:36:12.624Z,97.73
2018-03-11T19:38:40.216Z,96.19
2018-03-11T19:41:07.813Z,97.16
2018-03-11T19:43:35.505Z,97.57
2018-03-11T19:46:03.159Z,97.82
2018-03-11T19:48:30.742Z,98.13
2018-03-11T19:50:58.347Z,98.50
2018-03-11T19:53:26.118Z,98.45
2018-03-11T19:55:53.743Z,98.10
2018-03-11T19:58:21.565Z,96.98
2018-03-11T20:00:49.459Z,96.51
2018-03-11T20:03:17.128Z,96.68
2018-03-11T20:05:44.713Z,96.90
2018-03-11T20:08:12.444Z,97.15
2018-03-11T20:10:40.140Z,97.18
2018-03-11T20:13:07.863Z,96.92
2018-03-11T20:15:35.447Z,97.16
2018-03-11T20:18:03.297Z,97.72
2018-03-11T20:20:30.968Z,97.72
2018-03-11T20:22:58.728Z,97.74
2018-03-11T20:25:27.357Z,97.66
2018-03-11T20:27:54.936Z,97.60
2018-03-11T20:30:22.768Z,97.60
2018-03-11T20:32:50.627Z,97.38
2018-03-11T20:35:18.428Z,96.67
2018-03-11T20:37:46.022Z,98.22
2018-03-11T20:40:13.663Z,98.90
2018-03-11T20:42:41.231Z,98.57
2018-03-11T20:45:09.204Z,98.22
2018-03-11T20:47:36.748Z,97.74
2018-03-11T20:50:04.541Z,97.36
2018-03-11T20:52:32.119Z,98.31
2018-03-11T20:54:59.685Z,98.12
2018-03-11T20:57:27.492Z,98.50
2018-03-11T20:59:55.793Z,98.64
2018-03-11T21:02:23.393Z,98.94
2018-03-11T21:04:51.099Z,98.51
2018-03-11T21:07:18.799Z,98.67
2018-03-11T21:09:46.413Z,98.94
2018-03-11T21:12:14.076Z,98.46
2018-03-11T21:14:41.693Z,98.67
2018-03-11T21:17:09.438Z,98.76
2018-03-11T21:19:37.163Z,98.57
2018-03-11T21:22:05.024Z,98.50
2018-03-11T21:24:32.584Z,98.47
2018-03-11T21:27:00.273Z,98.23
2018-03-11T21:29:27.964Z,98.20
2018-03-11T21:31:56.126Z,98.55
2018-03-11T21:34:26.927Z,99.15
2018-03-11T21:36:54.644Z,99.26
2018-03-11T21:39:22.308Z,99.20
2018-03-11T21:41:50.148Z,98.35
2018-03-11T21:44:17.756Z,98.38
2018-03-11T21:46:45.314Z,98.49
2018-03-11T21:49:12.987Z,98.63
2018-03-11T21:51:40.610Z,98.81
2018-03-11T21:54:08.245Z,98.83
2018-03-11T21:56:35.877Z,99.00
2018-03-11T21:59:03.464Z,98.90
2018-03-11T22:01:31.220Z,98.72
2018-03-11T22:03:59.520Z,98.76
2018-03-11T22:06:27.188Z,98.84
2018-03-11T22:08:54.839Z,98.80
2018-03-11T22:11:22.548Z,98.62
2018-03-11T22:13:50.333Z,98.82
2018-03-11T22:16:18.005Z,99.17
2018-03-11T22:18:45.610Z,99.14
2018-03-11T22:21:16.353Z,99.06
2018-03-11T22:23:44.358Z,98.73
2018-03-11T22:26:11.957Z,98.78
2018-03-11T22:28:39.779Z,98.81
2018-03-11T22:31:07.369Z,98.74
2018-03-11T22:33:35.334Z,97.43
2018-03-11T22:36:03.025Z,97.71
2018-03-11T22:38:30.834Z,98.31
2018-03-11T22:40:58.474Z,98.36
2018-03-11T22:43:26.233Z,98.02
2018-03-11T22:45:54.788Z,97.55
2018-03-11T22:48:22.358Z,97.17
2018-03-11T22:50:50.735Z,97.93
2018-03-11T22:53:18.293Z,98.25
2018-03-11T22:55:46.009Z,98.81
2018-03-11T22:58:13.642Z,99.46
2018-03-11T23:00:41.314Z,99.33
2018-03-11T23:03:08.838Z,99.08
2018-03-11T23:05:36.413Z,99.09
2018-03-11T23:08:04.054Z,98.66
2018-03-11T23:10:31.674Z,98.74
2018-03-11T23:12:59.341Z,98.34
2018-03-11T23:15:27.090Z,98.24
2018-03-11T23:17:54.842Z,97.79
2018-03-11T23:20:23.455Z,98.01
2018-03-11T23:22:51.000Z,98.25
2018-03-11T23:25:18.610Z,98.28
2018-03-11T23:27:47.235Z,97.95
2018-03-11T23:30:15.419Z,97.56
2018-03-11T23:32:43.072Z,97.33
2018-03-11T23:35:10.782Z,97.83
2018-03-11T23:37:38.443Z,98.86
2018-03-11T23:40:06.763Z,99.17
2018-03-11T23:42:34.473Z,98.87
2018-03-11T23:45:02.100Z,98.56
2018-03-11T23:47:29.684Z,98.26
2018-03-11T23:49:57.403Z,97.85
2018-03-11T23:52:24.942Z,97.62
2018-03-11T23:54:52.554Z,97.65
2018-03-11T23:57:20.222Z,97.72
2018-03-11T23:59:47.772Z,97.59
